createdAt,value
2019-03-18T00:00:26.119Z,0.50
2019-03-18T00:02:54.528Z,0.30
2019-03-18T00:05:22.975Z,0.50
2019-03-18T00:07:51.521Z,0.40
2019-03-18T00:10:19.928Z,0.50
2019-03-18T00:12:48.394Z,0.37
2019-03-18T00:15:16.876Z,0.40
2019-03-18T00:17:45.388Z,0.63
2019-03-18T00:20:14.108Z,0.53
2019-03-18T00:22:42.512Z,0.70
2019-03-18T00:25:17.457Z,0.53
2019-03-18T00:27:45.913Z,0.53
2019-03-18T00:30:20.888Z,0.40
2019-03-18T00:32:49.545Z,0.70
2019-03-18T00:35:17.935Z,0.40
2019-03-18T00:37:46.329Z,0.50
2019-03-18T00:40:18.498Z,0.43
2019-03-18T00:42:46.981Z,0.50
2019-03-18T00:45:15.899Z,0.40
2019-03-18T00:47:44.534Z,0.60
2019-03-18T00:50:16.808Z,1.60
2019-03-18T00:52:45.271Z,0.70
2019-03-18T00:55:14.063Z,0.83
2019-03-18T00:57:42.511Z,0.80
2019-03-18T01:00:15.835Z,0.47
2019-03-18T01:02:44.332Z,0.60
2019-03-18T01:05:13.282Z,0.50
2019-03-18T01:07:41.686Z,0.40
2019-03-18T01:10:14.250Z,0.33
2019-03-18T01:12:42.770Z,0.67
2019-03-18T01:15:11.898Z,0.67
2019-03-18T01:17:40.292Z,0.40
2019-03-18T01:20:13.415Z,0.47
2019-03-18T01:22:41.978Z,0.27
2019-03-18T01:25:11.216Z,0.30
2019-03-18T01:27:39.659Z,0.30
2019-03-18T01:30:13.138Z,0.20
2019-03-18T01:32:41.610Z,0.30
2019-03-18T01:35:10.955Z,0.47
2019-03-18T01:37:39.378Z,0.47
2019-03-18T01:40:10.195Z,0.43
2019-03-18T01:42:38.666Z,0.50
2019-03-18T01:45:07.890Z,0.30
2019-03-18T01:47:36.318Z,0.20
2019-03-18T01:50:06.953Z,0.27
2019-03-18T01:52:35.407Z,0.50
2019-03-18T01:55:05.444Z,0.30
2019-03-18T01:57:33.840Z,0.30
2019-03-18T02:00:02.402Z,0.40
2019-03-18T02:02:30.794Z,0.30
2019-03-18T02:04:59.189Z,0.20
2019-03-18T02:07:27.577Z,0.30
2019-03-18T02:09:55.968Z,0.30
2019-03-18T02:12:24.368Z,0.30
2019-03-18T02:14:52.838Z,0.20
2019-03-18T02:17:21.224Z,0.30
2019-03-18T02:19:49.607Z,0.20
2019-03-18T02:22:18.006Z,0.20
2019-03-18T02:24:46.406Z,0.30
2019-03-18T02:27:14.955Z,0.33
2019-03-18T02:29:43.369Z,0.33
2019-03-18T02:32:11.765Z,0.20
2019-03-18T02:34:40.171Z,0.30
2019-03-18T02:37:08.557Z,0.30
2019-03-18T02:39:37.068Z,0.20
2019-03-18T02:42:05.476Z,0.30
2019-03-18T02:44:33.844Z,0.30
2019-03-18T02:47:02.236Z,0.30
2019-03-18T02:49:30.664Z,0.40
2019-03-18T02:51:59.154Z,0.30
2019-03-18T02:54:27.535Z,0.30
2019-03-18T02:56:55.934Z,0.40
2019-03-18T02:59:24.317Z,0.50
2019-03-18T03:01:52.978Z,0.30
2019-03-18T03:04:21.387Z,0.30
2019-03-18T03:06:49.898Z,0.30
2019-03-18T03:09:18.283Z,0.50
2019-03-18T03:11:46.702Z,0.40
2019-03-18T03:14:15.078Z,0.40
2019-03-18T03:16:43.554Z,0.30
2019-03-18T03:19:11.928Z,0.33
2019-03-18T03:21:40.314Z,0.33
2019-03-18T03:24:08.704Z,0.37
2019-03-18T03:26:37.118Z,0.40
2019-03-18T03:29:05.503Z,0.40
2019-03-18T03:31:33.931Z,0.40
2019-03-18T03:34:02.364Z,0.50
2019-03-18T03:36:30.728Z,0.83
2019-03-18T03:38:59.105Z,0.40
2019-03-18T03:41:27.557Z,0.70
2019-03-18T03:43:56.019Z,0.40
2019-03-18T03:46:24.393Z,0.50
2019-03-18T03:48:52.793Z,0.57
2019-03-18T03:51:21.215Z,0.40
2019-03-18T03:53:49.619Z,0.37
2019-03-18T03:56:18.360Z,0.30
2019-03-18T03:58:47.088Z,0.57
2019-03-18T04:01:15.700Z,0.50
2019-03-18T04:03:44.101Z,0.60
2019-03-18T04:06:12.499Z,0.57
2019-03-18T04:08:40.903Z,0.40
2019-03-18T04:11:09.465Z,0.40
2019-03-18T04:13:37.865Z,0.60
2019-03-18T04:16:06.248Z,0.50
2019-03-18T04:18:34.641Z,0.50
2019-03-18T04:21:03.048Z,0.53
2019-03-18T04:23:31.434Z,0.30
2019-03-18T04:28:34.966Z,0.50
2019-03-18T04:31:03.370Z,0.60
2019-03-18T04:33:31.764Z,0.70
2019-03-18T04:36:00.160Z,0.53
2019-03-18T04:38:28.551Z,1.30
2019-03-18T04:40:56.990Z,0.57
2019-03-18T04:43:25.356Z,0.70
2019-03-18T04:45:53.748Z,0.60
2019-03-18T04:48:22.142Z,0.80
2019-03-18T04:50:50.607Z,0.70
2019-03-18T04:53:19.000Z,0.60
2019-03-18T04:55:47.423Z,0.87
2019-03-18T04:58:15.810Z,0.97
2019-03-18T05:00:44.318Z,0.73
2019-03-18T05:03:12.699Z,0.90
2019-03-18T05:05:41.102Z,1.00
2019-03-18T05:08:09.490Z,0.93
2019-03-18T05:10:37.907Z,1.03
2019-03-18T05:13:06.386Z,0.70
2019-03-18T05:15:34.796Z,0.90
2019-03-18T05:18:03.184Z,0.97
2019-03-18T05:20:31.605Z,0.80
2019-03-18T05:23:00.054Z,1.73
2019-03-18T05:25:28.463Z,0.87
2019-03-18T05:27:56.852Z,1.90
2019-03-18T05:30:25.277Z,1.00
2019-03-18T05:32:53.651Z,1.23
2019-03-18T05:35:22.041Z,1.53
2019-03-18T05:37:50.460Z,1.43
2019-03-18T05:40:18.841Z,1.47
2019-03-18T05:42:47.260Z,1.03
2019-03-18T05:45:15.705Z,0.90
2019-03-18T05:47:44.118Z,1.20
2019-03-18T05:50:12.564Z,1.40
2019-03-18T05:52:40.974Z,1.27
2019-03-18T05:55:10.127Z,1.07
2019-03-18T05:57:38.531Z,1.00
2019-03-18T06:00:12.003Z,1.00
2019-03-18T06:02:40.505Z,1.00
2019-03-18T06:05:10.515Z,1.00
2019-03-18T06:07:38.915Z,1.00
2019-03-18T06:10:11.627Z,1.03
2019-03-18T06:12:40.039Z,1.10
2019-03-18T06:15:12.280Z,1.07
2019-03-18T06:17:51.555Z,1.40
2019-03-18T06:20:11.741Z,1.10
2019-03-18T06:22:40.142Z,1.00
2019-03-18T06:25:09.275Z,1.00
2019-03-18T06:27:37.762Z,0.93
2019-03-18T06:30:17.419Z,1.30
2019-03-18T06:32:45.842Z,1.07
2019-03-18T06:35:14.255Z,1.13
2019-03-18T06:37:42.633Z,2.00
2019-03-18T06:40:12.674Z,1.27
2019-03-18T06:42:41.142Z,1.40
2019-03-18T06:45:10.993Z,1.50
2019-03-18T06:47:39.397Z,1.97
2019-03-18T06:50:09.730Z,1.87
2019-03-18T06:52:38.113Z,1.97
2019-03-18T06:55:07.176Z,1.50
2019-03-18T06:57:35.568Z,1.50
2019-03-18T07:00:07.047Z,1.70
2019-03-18T07:02:35.538Z,1.97
2019-03-18T07:05:04.712Z,1.63
2019-03-18T07:07:33.097Z,1.63
2019-03-18T07:10:01.511Z,1.80
2019-03-18T07:12:29.917Z,1.30
2019-03-18T07:14:58.331Z,1.33
2019-03-18T07:17:26.748Z,1.43
2019-03-18T07:19:55.161Z,1.30
2019-03-18T07:22:23.578Z,1.00
2019-03-18T07:24:52.015Z,0.80
2019-03-18T07:27:20.439Z,0.87
2019-03-18T07:29:48.840Z,1.00
2019-03-18T07:32:17.259Z,0.77
2019-03-18T07:34:45.646Z,0.70
2019-03-18T07:37:14.100Z,0.90
2019-03-18T07:39:42.492Z,0.95
2019-03-18T07:42:10.898Z,0.97
2019-03-18T07:44:39.304Z,0.67
2019-03-18T07:47:07.793Z,0.80
2019-03-18T07:49:36.293Z,0.60
2019-03-18T07:52:04.839Z,0.80
2019-03-18T07:54:33.394Z,0.90
2019-03-18T07:57:01.842Z,0.50
2019-03-18T07:59:30.219Z,0.63
2019-03-18T08:01:58.660Z,0.80
2019-03-18T08:04:36.651Z,0.90
2019-03-18T08:06:57.251Z,0.80
2019-03-18T08:09:25.671Z,0.70
2019-03-18T08:11:54.060Z,1.10
2019-03-18T08:14:22.512Z,1.30
2019-03-18T08:16:50.900Z,1.20
2019-03-18T08:19:19.312Z,1.10
2019-03-18T08:21:47.689Z,1.03
2019-03-18T08:24:16.124Z,1.87
2019-03-18T08:26:44.518Z,1.43
2019-03-18T08:29:12.917Z,1.30
2019-03-18T08:31:41.340Z,1.37
2019-03-18T08:34:09.795Z,1.10
2019-03-18T08:36:38.191Z,1.30
2019-03-18T08:39:07.365Z,1.10
2019-03-18T08:41:35.758Z,1.17
2019-03-18T08:44:04.322Z,1.07
2019-03-18T08:46:32.714Z,1.50
2019-03-18T08:49:01.129Z,1.10
2019-03-18T08:51:29.521Z,1.30
2019-03-18T08:53:57.989Z,1.27
2019-03-18T08:56:26.388Z,1.20
2019-03-18T08:58:54.792Z,1.03
2019-03-18T09:01:23.260Z,1.00
2019-03-18T09:03:51.682Z,1.00
2019-03-18T09:06:20.084Z,1.10
2019-03-18T09:08:48.553Z,0.90
2019-03-18T09:11:17.129Z,1.20
2019-03-18T09:13:45.547Z,1.20
2019-03-18T09:16:13.966Z,1.03
2019-03-18T09:18:42.353Z,0.80
2019-03-18T09:21:10.757Z,0.87
2019-03-18T09:23:39.160Z,0.90
2019-03-18T09:26:07.623Z,1.17
2019-03-18T09:28:36.082Z,1.00
2019-03-18T09:31:04.588Z,1.10
2019-03-18T09:33:33.033Z,1.10
2019-03-18T09:36:01.490Z,0.90
2019-03-18T09:38:29.900Z,0.70
2019-03-18T09:40:58.378Z,0.70
2019-03-18T09:43:26.806Z,0.70
2019-03-18T09:45:55.221Z,0.70
2019-03-18T09:48:23.616Z,0.70
2019-03-18T09:50:52.042Z,0.60
2019-03-18T09:53:20.463Z,0.63
2019-03-18T09:55:48.896Z,0.90
2019-03-18T09:58:17.303Z,0.70
2019-03-18T10:00:45.782Z,0.70
2019-03-18T10:03:14.173Z,0.80
2019-03-18T10:05:43.914Z,1.00
2019-03-18T10:08:12.467Z,1.07
2019-03-18T10:10:40.930Z,0.70
2019-03-18T10:13:09.336Z,0.90
2019-03-18T10:15:37.727Z,0.90
2019-03-18T10:18:06.146Z,0.80
2019-03-18T10:20:34.545Z,0.90
2019-03-18T10:23:03.227Z,0.77
2019-03-18T10:25:31.732Z,1.23
2019-03-18T10:28:00.134Z,0.90
2019-03-18T10:30:28.572Z,0.80
2019-03-18T10:32:56.942Z,0.70
2019-03-18T10:35:25.353Z,0.87
2019-03-18T10:37:53.778Z,0.83
2019-03-18T10:40:22.190Z,0.77
2019-03-18T10:42:50.624Z,1.03
2019-03-18T10:45:19.027Z,1.63
2019-03-18T10:47:47.447Z,0.90
2019-03-18T10:50:17.012Z,1.17
2019-03-18T10:52:45.722Z,1.20
2019-03-18T10:55:14.282Z,0.87
2019-03-18T10:57:42.665Z,1.40
2019-03-18T11:00:15.785Z,0.80
2019-03-18T11:02:45.208Z,0.60
2019-03-18T11:05:14.470Z,0.63
2019-03-18T11:07:42.978Z,0.50
2019-03-18T11:10:17.590Z,0.80
2019-03-18T11:12:46.047Z,0.93
2019-03-18T11:15:20.564Z,0.80
2019-03-18T11:17:49.002Z,0.80
2019-03-18T11:20:17.860Z,1.10
2019-03-18T11:22:46.232Z,0.90
2019-03-18T11:25:15.464Z,0.97
2019-03-18T11:27:43.857Z,0.83
2019-03-18T11:30:19.329Z,1.60
2019-03-18T11:32:47.737Z,1.00
2019-03-18T11:35:16.113Z,1.60
2019-03-18T11:37:44.499Z,1.13
2019-03-18T11:40:15.406Z,1.13
2019-03-18T11:42:43.864Z,1.40
2019-03-18T11:45:13.925Z,1.30
2019-03-18T11:47:42.405Z,3.03
2019-03-18T11:50:13.054Z,1.83
2019-03-18T11:52:41.625Z,1.80
2019-03-18T11:55:12.979Z,2.10
2019-03-18T11:57:41.376Z,1.70
2019-03-18T12:00:26.453Z,1.57
2019-03-18T12:02:55.401Z,1.33
2019-03-18T12:05:27.831Z,1.30
2019-03-18T12:07:56.488Z,0.83
2019-03-18T12:10:25.897Z,1.30
2019-03-18T12:12:54.606Z,1.30
2019-03-18T12:15:25.358Z,1.03
2019-03-18T12:17:53.983Z,1.10
2019-03-18T12:20:25.477Z,1.40
2019-03-18T12:22:52.984Z,0.70
2019-03-18T12:25:21.549Z,1.00
2019-03-18T12:27:50.046Z,0.85
2019-03-18T12:30:23.734Z,0.68
2019-03-18T12:32:52.275Z,0.60
2019-03-18T12:35:20.743Z,0.60
2019-03-18T12:37:49.254Z,1.00
2019-03-18T12:40:18.288Z,0.50
2019-03-18T12:42:46.779Z,0.50
2019-03-18T12:45:16.163Z,0.78
2019-03-18T12:47:44.546Z,0.50
2019-03-18T12:50:17.961Z,1.02
2019-03-18T12:52:46.396Z,0.55
2019-03-18T12:55:15.040Z,0.68
2019-03-18T12:57:43.721Z,0.40
2019-03-18T13:00:18.293Z,0.50
2019-03-18T13:02:46.883Z,0.40
2019-03-18T13:05:15.410Z,0.50
2019-03-18T13:07:43.972Z,0.43
2019-03-18T13:10:15.416Z,0.57
2019-03-18T13:12:43.948Z,0.40
2019-03-18T13:15:15.228Z,0.50
2019-03-18T13:17:44.241Z,0.63
2019-03-18T13:20:14.501Z,0.90
2019-03-18T13:22:43.016Z,0.70
2019-03-18T13:25:12.550Z,0.60
2019-03-18T13:27:41.521Z,0.63
2019-03-18T13:30:15.624Z,0.60
2019-03-18T13:32:44.169Z,0.67
2019-03-18T13:35:12.753Z,0.30
2019-03-18T13:37:41.564Z,0.40
2019-03-18T13:40:14.999Z,0.30
2019-03-18T13:42:43.432Z,0.20
2019-03-18T13:45:14.456Z,0.27
2019-03-18T13:47:43.075Z,0.20
2019-03-18T13:50:16.512Z,0.10
2019-03-18T13:52:45.071Z,0.10
2019-03-18T13:55:13.754Z,0.10
2019-03-18T13:57:42.235Z,0.20
2019-03-18T14:00:17.356Z,0.10
2019-03-18T14:02:46.009Z,0.10
2019-03-18T14:05:14.513Z,0.00
2019-03-18T14:07:42.907Z,0.20
2019-03-18T14:10:19.702Z,0.10
2019-03-18T14:12:48.260Z,0.10
2019-03-18T14:15:21.938Z,0.20
2019-03-18T14:17:50.531Z,0.20
2019-03-18T14:20:20.772Z,0.20
2019-03-18T14:22:49.247Z,0.30
2019-03-18T14:25:17.657Z,0.37
2019-03-18T14:27:46.107Z,0.10
2019-03-18T14:30:17.182Z,0.13
2019-03-18T14:32:45.582Z,0.63
2019-03-18T14:35:14.750Z,0.20
2019-03-18T14:37:43.175Z,0.20
2019-03-18T14:40:13.786Z,0.30
2019-03-18T14:42:42.306Z,0.40
2019-03-18T14:45:13.601Z,0.20
2019-03-18T14:47:42.034Z,0.40
2019-03-18T14:50:12.035Z,0.30
2019-03-18T14:52:40.453Z,0.30
2019-03-18T14:55:11.559Z,0.30
2019-03-18T14:57:39.984Z,0.20
2019-03-18T15:00:11.448Z,0.30
2019-03-18T15:02:39.853Z,0.30
2019-03-18T15:05:11.222Z,0.40
2019-03-18T15:07:39.639Z,1.40
2019-03-18T15:10:16.296Z,0.60
2019-03-18T15:12:44.722Z,0.50
2019-03-18T15:15:15.067Z,0.30
2019-03-18T15:17:43.571Z,0.47
2019-03-18T15:20:14.068Z,0.50
2019-03-18T15:22:42.649Z,0.90
2019-03-18T15:25:16.720Z,0.93
2019-03-18T15:27:45.218Z,1.30
2019-03-18T15:30:16.314Z,1.73
2019-03-18T15:32:44.896Z,1.37
2019-03-18T15:35:14.041Z,1.20
2019-03-18T15:37:42.543Z,1.30
2019-03-18T15:40:16.152Z,1.00
2019-03-18T15:42:44.610Z,0.70
2019-03-18T15:45:22.380Z,2.67
2019-03-18T15:47:51.017Z,3.30
2019-03-18T15:50:21.429Z,2.83
2019-03-18T15:52:49.858Z,1.37
2019-03-18T15:55:18.387Z,1.00
2019-03-18T15:57:46.801Z,1.40
2019-03-18T16:00:20.163Z,3.43
2019-03-18T16:02:48.631Z,1.70
2019-03-18T16:05:17.113Z,0.57
2019-03-18T16:07:45.674Z,0.40
2019-03-18T16:10:17.808Z,0.50
2019-03-18T16:12:46.205Z,0.50
2019-03-18T16:15:15.862Z,0.50
2019-03-18T16:17:44.326Z,0.60
2019-03-18T16:20:15.125Z,0.60
2019-03-18T16:22:43.658Z,0.40
2019-03-18T16:25:12.541Z,0.33
2019-03-18T16:27:41.049Z,0.20
2019-03-18T16:30:14.603Z,0.40
2019-03-18T16:32:43.226Z,0.60
2019-03-18T16:35:16.182Z,0.43
2019-03-18T16:37:45.004Z,0.50
2019-03-18T16:40:21.207Z,0.57
2019-03-18T16:42:49.740Z,3.07
2019-03-18T16:45:21.326Z,0.90
2019-03-18T16:47:49.966Z,0.30
2019-03-18T16:50:28.414Z,0.30
2019-03-18T16:52:56.830Z,0.37
2019-03-18T16:55:25.354Z,0.70
2019-03-18T16:57:53.828Z,0.50
2019-03-18T17:00:23.743Z,0.60
2019-03-18T17:02:52.203Z,0.30
2019-03-18T17:05:20.691Z,0.40
2019-03-18T17:07:49.174Z,1.00
2019-03-18T17:10:17.682Z,1.30
2019-03-18T17:12:46.144Z,2.17
2019-03-18T17:15:15.905Z,1.30
2019-03-18T17:17:44.324Z,1.13
2019-03-18T17:20:16.201Z,1.23
2019-03-18T17:22:49.495Z,1.20
2019-03-18T17:25:24.235Z,1.57
2019-03-18T17:27:52.639Z,1.30
2019-03-18T17:30:21.424Z,1.00
2019-03-18T17:32:49.822Z,1.50
2019-03-18T17:35:18.221Z,1.60
2019-03-18T17:37:47.010Z,1.93
2019-03-18T17:40:19.076Z,4.37
2019-03-18T17:42:47.551Z,7.97
2019-03-18T17:45:16.765Z,7.87
2019-03-18T17:47:45.495Z,13.87
2019-03-18T17:50:16.126Z,12.70
2019-03-18T17:52:44.637Z,10.87
2019-03-18T17:55:13.166Z,10.20
2019-03-18T17:57:41.582Z,15.63
2019-03-18T18:00:18.834Z,43.83
2019-03-18T18:02:47.239Z,7.67
2019-03-18T18:05:15.708Z,4.37
2019-03-18T18:07:44.300Z,3.07
2019-03-18T18:10:13.014Z,2.73
2019-03-18T18:12:41.402Z,2.10
2019-03-18T18:15:10.993Z,2.17
2019-03-18T18:17:39.536Z,6.67
2019-03-18T18:20:10.399Z,8.47
2019-03-18T18:22:41.046Z,10.60
2019-03-18T18:25:10.538Z,1.40
2019-03-18T18:27:38.944Z,4.77
2019-03-18T18:30:13.213Z,3.00
2019-03-18T18:32:41.768Z,2.20
2019-03-18T18:35:11.512Z,2.70
2019-03-18T18:37:39.943Z,8.40
2019-03-18T18:40:20.475Z,7.90
2019-03-18T18:42:49.011Z,12.57
2019-03-18T18:45:17.544Z,5.73
2019-03-18T18:47:46.001Z,3.97
2019-03-18T18:50:14.547Z,3.77
2019-03-18T18:52:43.011Z,2.70
2019-03-18T18:55:12.601Z,3.20
2019-03-18T18:57:41.061Z,4.17
2019-03-18T19:00:20.075Z,4.57
2019-03-18T19:02:48.697Z,5.77
2019-03-18T19:05:17.877Z,3.77
2019-03-18T19:07:46.440Z,3.80
2019-03-18T19:10:16.415Z,4.13
2019-03-18T19:12:44.900Z,2.43
2019-03-18T19:15:18.717Z,2.90
2019-03-18T19:17:47.280Z,1.70
2019-03-18T19:20:15.942Z,2.53
2019-03-18T19:22:44.526Z,2.57
2019-03-18T19:25:14.600Z,7.17
2019-03-18T19:27:43.068Z,7.83
2019-03-18T19:30:17.337Z,11.33
2019-03-18T19:32:45.742Z,8.90
2019-03-18T19:35:14.316Z,10.87
2019-03-18T19:37:42.785Z,11.67
2019-03-18T19:40:13.636Z,11.30
2019-03-18T19:42:42.043Z,9.80
2019-03-18T19:45:15.100Z,9.13
2019-03-18T19:47:43.511Z,8.00
2019-03-18T19:50:23.908Z,7.03
2019-03-18T19:52:52.413Z,7.97
2019-03-18T19:55:20.941Z,7.60
2019-03-18T19:57:49.417Z,7.03
2019-03-18T20:00:20.576Z,6.57
2019-03-18T20:02:49.094Z,8.40
2019-03-18T20:05:18.911Z,13.77
2019-03-18T20:07:47.539Z,15.67
2019-03-18T20:10:17.198Z,9.50
2019-03-18T20:12:45.788Z,5.50
2019-03-18T20:15:15.734Z,5.00
2019-03-18T20:17:44.167Z,6.10
2019-03-18T20:20:15.158Z,4.30
2019-03-18T20:22:43.659Z,4.40
2019-03-18T20:25:13.527Z,4.20
2019-03-18T20:27:42.144Z,4.90
2019-03-18T20:30:19.756Z,6.07
2019-03-18T20:32:48.291Z,6.60
2019-03-18T20:35:18.287Z,6.20
2019-03-18T20:37:46.705Z,6.73
2019-03-18T20:40:16.063Z,6.27
2019-03-18T20:42:44.595Z,5.57
2019-03-18T20:45:17.814Z,4.80
2019-03-18T20:47:46.213Z,4.77
2019-03-18T20:50:22.735Z,5.33
2019-03-18T20:52:51.151Z,8.40
2019-03-18T20:55:19.719Z,8.70
2019-03-18T20:57:48.181Z,9.27
2019-03-18T21:03:40.402Z,9.90
2019-03-18T21:06:08.858Z,10.43
2019-03-18T21:08:37.316Z,12.00
2019-03-18T21:11:05.759Z,24.63
2019-03-18T21:13:34.185Z,15.03
2019-03-18T21:16:02.638Z,14.57
2019-03-18T21:18:31.036Z,11.33
2019-03-18T21:20:59.514Z,9.23
2019-03-18T21:23:27.915Z,8.70
2019-03-18T21:25:56.369Z,6.73
2019-03-18T21:28:24.818Z,6.17
2019-03-18T21:30:53.264Z,6.10
2019-03-18T21:33:21.700Z,4.80
2019-03-18T21:35:52.741Z,3.80
2019-03-18T21:38:20.375Z,2.97
2019-03-18T21:40:48.827Z,2.90
2019-03-18T21:43:17.223Z,2.47
2019-03-18T21:45:45.636Z,4.17
2019-03-18T21:48:14.093Z,3.43
2019-03-18T21:50:42.511Z,3.13
2019-03-18T21:53:10.964Z,4.00
2019-03-18T21:55:39.377Z,4.13
2019-03-18T21:58:07.822Z,4.00
2019-03-18T22:00:36.227Z,4.10
2019-03-18T22:03:05.269Z,5.50
2019-03-18T22:05:33.777Z,6.90
2019-03-18T22:08:02.172Z,7.00
2019-03-18T22:10:30.604Z,7.53
2019-03-18T22:12:59.001Z,9.87
2019-03-18T22:15:27.438Z,10.77
2019-03-18T22:17:55.837Z,7.87
2019-03-18T22:20:24.237Z,7.43
2019-03-18T22:22:52.727Z,5.37
2019-03-18T22:25:21.310Z,4.40
2019-03-18T22:27:49.720Z,5.23
2019-03-18T22:30:20.859Z,5.53
2019-03-18T22:32:50.400Z,5.20
2019-03-18T22:35:18.823Z,5.70
2019-03-18T22:37:47.247Z,5.97
2019-03-18T22:40:16.866Z,6.50
2019-03-18T22:42:45.441Z,5.10
2019-03-18T22:45:15.202Z,4.23
2019-03-18T22:47:43.804Z,3.50
2019-03-18T22:50:13.491Z,3.70
2019-03-18T22:52:41.899Z,3.57
2019-03-18T22:55:11.541Z,4.07
2019-03-18T22:57:40.114Z,3.90
2019-03-18T23:00:26.061Z,3.53
2019-03-18T23:02:54.819Z,3.57
2019-03-18T23:05:23.554Z,2.63
2019-03-18T23:07:51.971Z,3.00
2019-03-18T23:10:20.380Z,2.40
2019-03-18T23:12:48.761Z,2.70
2019-03-18T23:15:17.243Z,2.53
2019-03-18T23:17:45.642Z,2.70
2019-03-18T23:20:14.269Z,2.57
2019-03-18T23:22:42.672Z,2.27
2019-03-18T23:25:11.421Z,2.10
2019-03-18T23:27:39.813Z,2.07
2019-03-18T23:30:11.073Z,2.20
2019-03-18T23:32:39.536Z,2.10
2019-03-18T23:35:08.682Z,2.10
2019-03-18T23:37:37.176Z,2.10
2019-03-18T23:40:08.326Z,2.77
2019-03-18T23:42:36.725Z,2.30
2019-03-18T23:45:06.389Z,2.23
2019-03-18T23:47:35.112Z,1.90
2019-03-18T23:50:04.693Z,2.27
2019-03-18T23:52:33.170Z,3.67
2019-03-18T23:55:01.656Z,2.93
2019-03-18T23:57:30.059Z,3.30
2019-03-18T23:59:58.520Z,3.53
